Moro, Arkansas
Current Conditions -  °F | °C
As of 2:55 AM on Monday 22 Dec 2014 (Local Time) from KSGT Reporting Station
Overcast Overcast  
Wind Chill: 42°   Ceiling: 1100
Heat Index: 46°   Visibility: NA
Dew Point: 43°   Wind: 9mph
Humidity: 87%   Direction: 140°SE
Pressure: 29.84"   Gusts: NA
Location:  34.8°N, 90.99°W
Report Text: KSGT 220855Z 14008KT OVC011 08/06 A2984 RMK AO1 57010
Loading
Personal Weather Stations






























Interactive Weather Map New forecast layout! Learn more

10-Day Weather Forecast

Advertisements
Track Severe Weather on mobile